createdAt,value
2017-07-18T00:00:10.000Z,57.2
2017-07-18T00:16:58.000Z,57.2
2017-07-18T00:33:48.000Z,57.2
2017-07-18T00:50:36.000Z,56.8
2017-07-18T01:07:24.000Z,56.8
2017-07-18T01:24:12.000Z,57.2
2017-07-18T01:41:01.000Z,57.2
2017-07-18T01:57:49.000Z,57.2
2017-07-18T02:14:36.000Z,57.6
2017-07-18T02:31:24.000Z,57.2
2017-07-18T02:48:12.000Z,57.2
2017-07-18T03:05:01.000Z,57.2
2017-07-18T03:21:48.000Z,56.8
2017-07-18T03:38:36.000Z,57.2
2017-07-18T03:55:23.000Z,57.6
2017-07-18T04:12:11.000Z,57.2
2017-07-18T04:28:58.000Z,57.6
2017-07-18T04:45:45.000Z,58.4
2017-07-18T04:55:48.000Z,58.8
2017-07-18T05:12:35.000Z,59.6
2017-07-18T05:20:58.000Z,59.2
2017-07-18T05:37:47.000Z,58.4
2017-07-18T05:49:32.000Z,57.2
2017-07-18T06:06:21.000Z,56.8
2017-07-18T06:23:10.000Z,56
2017-07-18T06:39:58.000Z,56.4
2017-07-18T06:56:47.000Z,56.4
2017-07-18T07:13:37.000Z,56
2017-07-18T07:30:26.000Z,56
2017-07-18T07:47:15.000Z,56.4
2017-07-18T08:04:05.000Z,56
2017-07-18T08:20:56.000Z,55.6
2017-07-18T08:37:46.000Z,55.2
2017-07-18T08:54:36.000Z,54.4
2017-07-18T09:11:27.000Z,53.6
2017-07-18T09:28:17.000Z,52.4
2017-07-18T09:45:07.000Z,52.4
2017-07-18T10:01:59.000Z,51.2
2017-07-18T10:18:50.000Z,51.2
2017-07-18T10:35:42.000Z,50.8
2017-07-18T10:52:33.000Z,50.4
2017-07-18T11:09:24.000Z,50
2017-07-18T11:26:16.000Z,50
2017-07-18T11:43:08.000Z,50
2017-07-18T11:59:59.000Z,50
2017-07-18T12:16:52.000Z,49.6
2017-07-18T13:24:22.000Z,49.2
2017-07-18T13:41:14.000Z,48.4
2017-07-18T13:58:07.000Z,48.4
2017-07-18T14:15:00.000Z,48.4
2017-07-18T14:31:54.000Z,48.4
2017-07-18T14:48:47.000Z,48.4
2017-07-18T15:05:40.000Z,49.6
2017-07-18T15:22:33.000Z,49.2
2017-07-18T15:39:27.000Z,48.4
2017-07-18T15:56:20.000Z,48.4
2017-07-18T16:13:13.000Z,49.2
2017-07-18T16:30:06.000Z,49.6
2017-07-18T16:46:59.000Z,49.6
2017-07-18T17:03:53.000Z,49.6
2017-07-18T17:20:46.000Z,50
2017-07-18T17:37:39.000Z,50.4
2017-07-18T17:54:31.000Z,50.8
2017-07-18T18:11:24.000Z,51.2
2017-07-18T18:28:17.000Z,52.4
2017-07-18T18:45:09.000Z,52
2017-07-18T19:02:02.000Z,52.8
2017-07-18T19:18:54.000Z,53.2
2017-07-18T19:35:46.000Z,52.8
2017-07-18T19:52:37.000Z,53.2
2017-07-18T20:09:29.000Z,54
2017-07-18T20:26:20.000Z,54.4
2017-07-18T20:43:11.000Z,54.8
2017-07-18T21:00:03.000Z,55.2
2017-07-18T21:16:54.000Z,55.2
2017-07-18T21:33:45.000Z,55.6
2017-07-18T21:50:36.000Z,56
2017-07-18T22:07:26.000Z,56
2017-07-18T22:24:16.000Z,56.4
2017-07-18T22:41:05.000Z,56.8
2017-07-18T22:57:56.000Z,57.6
2017-07-18T23:14:45.000Z,57.6
2017-07-18T23:31:36.000Z,57.6
2017-07-18T23:48:26.000Z,57.2
